LCPH/PFO METAR and TAF weather

Enter ICAO airport designator
Station Type Date Time Source
LCPH METAR 2019/04/18 15:30 UTC NOAA

LCPH 181530Z 24006KT 9999 SCT022TCU BKN050 18/13 Q1013


Station Type Date Time Source
LCPH Decoded METAR 2019/04/18 15:30 UTC NOAA

Paphos Airport, Cyprus (LCPH) 34-43N 032-29E 8M
Apr 18, 2019 - 11:30 AM EDT / 2019.04.18 1530 UTC
Wind: from the WSW (240 degrees) at 7 MPH (6 KT):0
Visibility: greater than 7 mile(s):0
Sky conditions: mostly cloudy
Weather: Towering cumulus clouds observed
Temperature: 64 F (18 C)
Dew Point: 55 F (13 C)
Relative Humidity: 72%
Pressure (altimeter): 29.91 in. Hg (1013 hPa)
ob: LCPH 181530Z 24006KT 9999 SCT022TCU BKN050 18/13 Q1013
cycle: 15

Station Type Date Time Source
LCPH TAF 2019/04/18 12:33 UTC NOAA

TAF LCPH 181130Z 1812/1912 26014KT 9999 SCT020 PROB30
TEMPO 1812/1816 5000 SHRA SCT025TCU
BECMG 1817/1820 35006KT
BECMG 1908/1911 28016KT

Example: see airport list